Time;durP1;ratioP1;P1;durP2;ratioP2;P2;SDS_P1;SDS_P2;PMS_P1;PMS_P2;Temp;Humidity;BMP_temperature;BMP_pressure;BME280_temperature;BME280_humidity;BME280_pressure;Samples;Min_cycle;Max_cycle;Signal;HPM_P1;HPM_P2
2022/07/24 00:00:38;;;;;;;10.35;5.90;;;;;;;;;;6292974;28;20052;-75
2022/07/24 00:03:40;;;;;;;;;;;;;;;;;;6294849;28;20052;-75
2022/07/24 00:06:42;;;;;;;7.43;5.65;;;;;;;;;;6290516;28;20111;-75
2022/07/24 00:09:44;;;;;;;6.90;5.25;;;;;;;;;;6291956;28;20086;-75
2022/07/24 00:12:46;;;;;;;8.55;6.35;;;;;;;;;;6292886;28;20067;-76
2022/07/24 00:15:49;;;;;;;9.80;6.43;;;;;;;;;;6287029;28;21637;-76
2022/07/24 00:18:50;;;;;;;;;;;;;;;;;;6290899;28;20051;-75
2022/07/24 00:21:52;;;;;;;;;;;;;;;;;;6292920;28;19925;-75
2022/07/24 00:24:53;;;;;;;;;;;;;;;;;;6293837;28;19925;-75
2022/07/24 00:27:54;;;;;;;;;;;;;;;;;;6292884;28;19928;-74
2022/07/24 00:30:57;;;;;;;;;;;;;;;;;;6288759;28;20154;-75
2022/07/24 00:33:59;;;;;;;;;;;;;;;;;;6288811;28;20302;-74
2022/07/24 00:37:00;;;;;;;;;;;;;;;;;;6296060;28;19931;-75
2022/07/24 00:40:02;;;;;;;;;;;;;;;;;;6292555;28;19916;-75
2022/07/24 00:43:03;;;;;;;;;;;;;;;;;;6296180;28;19923;-74
2022/07/24 00:46:06;;;;;;;;;;;;;;;;;;6287233;28;19932;-75
2022/07/24 00:49:08;;;;;;;;;;;;;;;;;;6290298;28;19916;-72
2022/07/24 00:52:10;;;;;;;;;;;;;;;;;;6289395;28;19962;-75
2022/07/24 00:55:11;;;;;;;;;;;;;;;;;;6289482;28;19928;-74
2022/07/24 00:58:13;;;;;;;;;;;;;;;;;;6287155;28;19920;-75
2022/07/24 01:01:16;;;;;;;;;;;;;;;;;;6288079;28;19928;-73
2022/07/24 01:04:18;;;;;;;;;;;;;;;;;;6289747;28;19923;-75
2022/07/24 01:07:19;;;;;;;;;;;;;;;;;;6289883;28;19916;-73
2022/07/24 01:10:20;;;;;;;;;;;;;;;;;;6287734;28;20135;-75
2022/07/24 01:13:22;;;;;;;;;;;;;;;;;;6291805;28;20006;-76
2022/07/24 01:16:25;;;;;;;;;;;;;;;;;;6288741;28;19921;-76
2022/07/24 01:19:26;;;;;;;;;;;;;;;;;;6286449;28;19917;-74
2022/07/24 01:22:29;;;;;;;;;;;;;;;;;;6290216;28;19924;-75
2022/07/24 01:25:30;;;;;;;;;;;;;;;;;;6287374;28;19963;-72
2022/07/24 01:28:32;;;;;;;;;;;;;;;;;;6297658;28;21323;-75
2022/07/24 01:31:33;;;;;;;;;;;;;;;;;;6297903;28;20219;-74
2022/07/24 01:34:34;;;;;;;;;;;;;;;;;;6297740;28;19920;-74
2022/07/24 01:37:37;;;;;;;;;;;;;;;;;;6297399;28;20219;-74
2022/07/24 01:40:39;;;;;;;;;;;;;;;;;;6296048;28;20104;-74
2022/07/24 01:43:40;;;;;;;;;;;;;;;;;;6298186;28;19920;-74
2022/07/24 01:46:42;;;;;;;;;;;;;;;;;;6294502;28;20093;-75
2022/07/24 01:49:43;;;;;;;;;;;;;;;;;;6293419;28;19932;-75
2022/07/24 01:52:46;;;;;;;;;;;;;;;;;;6300659;28;19920;-75
2022/07/24 01:55:50;;;;;;;;;;;;;;;;;;6297319;28;19917;-74
2022/07/24 01:58:51;;;;;;;;;;;;;;;;;;6293908;28;19935;-75
2022/07/24 02:01:52;;;;;;;;;;;;;;;;;;6298149;28;19924;-75
2022/07/24 02:04:54;;;;;;;;;;;;;;;;;;6296242;28;19916;-76
2022/07/24 02:07:58;;;;;;;;;;;;;;;;;;6298686;28;20204;-76
2022/07/24 02:10:59;;;;;;;;;;;;;;;;;;6297302;28;19922;-75
2022/07/24 02:14:01;;;;;;;;;;;;;;;;;;6301671;28;19963;-74
2022/07/24 02:17:02;;;;;;;;;;;;;;;;;;6305530;28;19928;-75
2022/07/24 02:20:05;;;;;;;;;;;;;;;;;;6306819;28;19916;-76
2022/07/24 02:23:08;;;;;;;;;;;;;;;;;;6296843;28;20210;-73
2022/07/24 02:26:09;;;;;;;;;;;;;;;;;;6293353;28;20139;-76
2022/07/24 02:29:11;;;;;;;;;;;;;;;;;;6293731;28;19932;-76
2022/07/24 02:32:12;;;;;;;;;;;;;;;;;;6299240;28;19917;-76
2022/07/24 02:35:14;;;;;;;;;;;;;;;;;;6292161;28;19928;-76
2022/07/24 02:38:16;;;;;;;;;;;;;;;;;;6291065;28;20258;-75
2022/07/24 02:41:18;;;;;;;;;;;;;;;;;;6291196;28;19924;-74
2022/07/24 02:44:19;;;;;;;;;;;;;;;;;;6297507;28;20112;-76
2022/07/24 02:47:21;;;;;;;;;;;;;;;;;;6293037;28;19924;-76
2022/07/24 02:50:23;;;;;;;;;;;;;;;;;;6292045;28;20124;-77
2022/07/24 02:53:26;;;;;;;;;;;;;;;;;;6294390;28;20223;-76
2022/07/24 02:56:28;;;;;;;;;;;;;;;;;;6292337;28;20211;-73
2022/07/24 02:59:29;;;;;;;;;;;;;;;;;;6292767;28;19917;-74
2022/07/24 03:02:30;;;;;;;;;;;;;;;;;;6294308;28;19931;-75
2022/07/24 03:05:32;;;;;;;;;;;;;;;;;;6293157;28;19916;-74
2022/07/24 03:08:35;;;;;;;;;;;;;;;;;;6293656;28;19929;-74
2022/07/24 03:11:36;;;;;;;;;;;;;;;;;;6296947;28;19920;-76
2022/07/24 03:14:38;;;;;;;;;;;;;;;;;;6293097;28;19928;-77
2022/07/24 03:17:40;;;;;;;;;;;;;;;;;;6292648;28;19982;-76
2022/07/24 03:20:41;;;;;;;;;;;;;;;;;;6288728;28;20802;-77
2022/07/24 03:23:44;;;;;;;;;;;;;;;;;;6291094;28;19924;-76
2022/07/24 03:26:45;;;;;;;;;;;;;;;;;;6291276;28;19925;-76
2022/07/24 03:29:47;;;;;;;;;;;;;;;;;;6292309;28;19916;-76
2022/07/24 03:32:48;;;;;;;;;;;;;;;;;;6290790;28;19962;-76
2022/07/24 03:35:50;;;;;;;;;;;;;;;;;;6290716;28;19916;-76
2022/07/24 03:38:52;;;;;;;;;;;;;;;;;;6295514;28;20219;-76
2022/07/24 03:41:54;;;;;;;;;;;;;;;;;;6290559;28;19924;-76
2022/07/24 03:44:55;;;;;;;;;;;;;;;;;;6294153;28;19974;-76
2022/07/24 03:47:57;;;;;;;;;;;;;;;;;;6292387;28;19916;-75
2022/07/24 03:50:59;;;;;;;;;;;;;;;;;;6293218;28;20204;-76
2022/07/24 03:54:01;;;;;;;;;;;;;;;;;;6290428;28;19973;-76
2022/07/24 03:57:03;;;;;;;;;;;;;;;;;;6293007;28;20108;-76
2022/07/24 04:00:05;;;;;;;;;;;;;;;;;;6291997;28;19924;-76
2022/07/24 04:03:06;;;;;;;;;;;;;;;;;;6291619;28;19916;-76
2022/07/24 04:06:08;;;;;;;;;;;;;;;;;;6292466;28;20147;-75
2022/07/24 04:09:11;;;;;;;;;;;;;;;;;;6290347;28;19936;-76
2022/07/24 04:12:12;;;;;;;;;;;;;;;;;;6290453;28;19917;-74
2022/07/24 04:15:14;;;;;;;;;;;;;;;;;;6297401;28;19916;-75
2022/07/24 04:18:15;;;;;;;;;;;;;;;;;;6299696;28;19924;-74
2022/07/24 04:21:17;;;;;;;;;;;;;;;;;;6299579;28;20146;-77
2022/07/24 04:24:20;;;;;;;;;;;;;;;;;;6295448;28;19954;-77
2022/07/24 04:27:21;;;;;;;;;;;;;;;;;;6295274;28;20204;-73
2022/07/24 04:30:22;;;;;;;;;;;;;;;;;;6297787;28;20146;-75
2022/07/24 04:33:24;;;;;;;;;;;;;;;;;;6293487;28;19925;-73
2022/07/24 04:36:25;;;;;;;;;;;;;;;;;;6300257;28;19928;-75
2022/07/24 04:39:28;;;;;;;;;;;;;;;;;;6296524;28;19924;-74
2022/07/24 04:42:30;;;;;;;;;;;;;;;;;;6296429;28;19917;-74
2022/07/24 04:45:31;;;;;;;;;;;;;;;;;;6291001;28;19916;-76
2022/07/24 04:48:33;;;;;;;;;;;;;;;;;;6277306;28;20262;-71
2022/07/24 04:51:34;;;;;;;;;;;;;;;;;;6295737;28;19940;-72
2022/07/24 04:54:37;;;;;;;;;;;;;;;;;;6291937;28;19935;-74
2022/07/24 04:57:39;;;;;;;;;;;;;;;;;;6296932;28;19916;-73
2022/07/24 05:00:40;;;;;;;;;;;;;;;;;;6294567;28;19923;-72
2022/07/24 05:03:42;;;;;;;;;;;;;;;;;;6296574;28;19924;-73
2022/07/24 05:06:46;;;;;;;;;;;;;;;;;;6298660;28;19966;-71
2022/07/24 05:09:48;;;;;;;;;;;;;;;;;;6299290;28;20119;-72
2022/07/24 05:12:50;;;;;;;;;;;;;;;;;;6295942;28;20034;-73
2022/07/24 05:15:51;;;;;;;;;;;;;;;;;;6296179;28;19917;-73
2022/07/24 05:18:53;;;;;;;;;;;;;;;;;;6297289;28;19919;-73
2022/07/24 05:21:54;;;;;;;;;;;;;;;;;;6298084;28;19916;-73
2022/07/24 05:24:57;;;;;;;;;;;;;;;;;;6297643;28;19920;-73
2022/07/24 05:27:58;;;;;;;;;;;;;;;;;;6297149;28;19932;-74
2022/07/24 05:31:00;;;;;;;;;;;;;;;;;;6296386;28;19924;-73
2022/07/24 05:34:01;;;;;;;;;;;;;;;;;;6294303;28;19932;-72
2022/07/24 05:37:03;;;;;;;;;;;;;;;;;;6298264;28;19921;-73
2022/07/24 05:40:06;;;;;;;;;;;;;;;;;;6295283;28;20290;-73
2022/07/24 05:43:08;;;;;;;;;;;;;;;;;;6294838;28;19966;-75
2022/07/24 05:46:09;;;;;;;;;;;;;;;;;;6295837;28;19931;-73
2022/07/24 05:49:11;;;;;;;;;;;;;;;;;;6293683;28;20408;-75
2022/07/24 05:52:12;;;;;;;;;;;;;;;;;;6296136;28;19917;-74
2022/07/24 05:55:15;;;;;;;;;;;;;;;;;;6294648;28;19930;-74
2022/07/24 05:58:16;;;;;;;;;;;;;;;;;;6294962;28;19935;-74
2022/07/24 06:01:18;;;;;;;;;;;;;;;;;;6293488;28;19932;-74
2022/07/24 06:04:19;;;;;;;;;;;;;;;;;;6294215;28;19920;-75
2022/07/24 06:07:20;;;;;;;;;;;;;;;;;;6297226;28;19928;-74
2022/07/24 06:10:23;;;;;;;;;;;;;;;;;;6294260;28;20146;-75
2022/07/24 06:13:25;;;;;;;;;;;;;;;;;;6294239;28;19951;-74
2022/07/24 06:16:26;;;;;;;;;;;;;;;;;;6294736;28;19921;-74
2022/07/24 06:19:28;;;;;;;;;;;;;;;;;;6291889;28;20100;-75
2022/07/24 06:22:29;;;;;;;;;;;;;;;;;;6291304;28;19916;-72
2022/07/24 06:25:32;;;;;;;;;;;;;;;;;;6293945;28;20211;-73
2022/07/24 06:28:33;;;;;;;;;;;;;;;;;;6292758;28;19924;-73
2022/07/24 06:31:35;;;;;;;;;;;;;;;;;;6296329;28;19978;-70
2022/07/24 06:34:36;;;;;;;;;;;;;;;;;;6292011;28;19929;-75
2022/07/24 06:37:37;;;;;;;;;;;;;;;;;;6295832;28;19962;-73
2022/07/24 06:40:40;;;;;;;;;;;;;;;;;;6294036;28;19977;-72
2022/07/24 06:43:42;;;;;;;;;;;;;;;;;;6294799;28;19922;-75
2022/07/24 06:46:43;;;;;;;;;;;;;;;;;;6294598;28;19939;-74
2022/07/24 06:49:44;;;;;;;;;;;;;;;;;;6295694;28;19925;-75
2022/07/24 06:52:46;;;;;;;;;;;;;;;;;;6291887;28;19939;-72
2022/07/24 06:55:52;;;;;;;;;;;;;;;;;;6294826;28;20018;-73
2022/07/24 06:58:53;;;;;;;;;;;;;;;;;;6295229;28;19983;-73
2022/07/24 07:01:55;;;;;;;;;;;;;;;;;;6292290;28;19932;-74
2022/07/24 07:04:57;;;;;;;;;;;;;;;;;;6292336;28;19939;-73
2022/07/24 07:07:58;;;;;;;;;;;;;;;;;;6294026;28;19924;-74
2022/07/24 07:11:01;;;;;;;;;;;;;;;;;;6292148;28;19916;-75
2022/07/24 07:14:03;;;;;;;;;;;;;;;;;;6295112;28;19924;-74
2022/07/24 07:17:04;;;;;;;;;;;;;;;;;;6295001;28;19970;-74
2022/07/24 07:20:06;;;;;;;;;;;;;;;;;;6288522;28;20603;-74
2022/07/24 07:23:07;;;;;;;;;;;;;;;;;;6291986;28;20231;-73
2022/07/24 07:26:10;;;;;;;;;;;;;;;;;;6290812;28;19929;-73
2022/07/24 07:29:12;;;;;;;;;;;;;;;;;;6291051;28;19917;-75
2022/07/24 07:32:13;;;;;;;;;;;;;;;;;;6293972;28;19916;-74
2022/07/24 07:35:14;;;;;;;;;;;;;;;;;;6292210;28;20445;-73
2022/07/24 07:38:16;;;;;;;;;;;;;;;;;;6291271;28;20004;-72
2022/07/24 07:41:19;;;;;;;;;;;;;;;;;;6288818;28;19924;-74
2022/07/24 07:44:20;;;;;;;;;;;;;;;;;;6291626;28;19916;-74
2022/07/24 07:47:22;;;;;;;;;;;;;;;;;;6290673;28;20156;-73
2022/07/24 07:50:23;;;;;;;;;;;;;;;;;;6289132;28;20192;-72
2022/07/24 07:53:25;;;;;;;;;;;;;;;;;;6293034;28;19926;-73
2022/07/24 07:56:30;;;;;;;;;;;;;;;;;;6297334;28;20100;-72
2022/07/24 07:59:31;;;;;;;;;;;;;;;;;;6296465;28;19954;-73
2022/07/24 08:02:33;;;;;;;;;;;;;;;;;;6288238;28;20130;-73
2022/07/24 08:05:34;;;;;;;;;;;;;;;;;;6290104;28;19924;-72
2022/07/24 08:08:35;;;;;;;;;;;;;;;;;;6292997;28;20570;-74
2022/07/24 08:11:38;;;;;;;;;;;;;;;;;;6289791;28;19925;-75
2022/07/24 08:14:40;;;;;;;;;;;;;;;;;;6292942;28;19954;-75
2022/07/24 08:17:41;;;;;;;;;;;;;;;;;;6295206;28;19928;-75
2022/07/24 08:20:43;;;;;;;;;;;;;;;;;;6293637;28;19924;-71
2022/07/24 08:23:45;;;;;;;;;;;;;;;;;;6294919;28;19917;-74
2022/07/24 08:26:48;;;;;;;;;;;;;;;;;;6289916;28;19988;-75
2022/07/24 08:29:49;;;;;;;;;;;;;;;;;;6292286;28;19924;-74
2022/07/24 08:32:51;;;;;;;;;;;;;;;;;;6291906;28;19924;-74
2022/07/24 08:35:52;;;;;;;;;;;;;;;;;;6289035;28;21457;-75
2022/07/24 08:38:53;;;;;;;;;;;;;;;;;;6288030;28;19939;-73
2022/07/24 08:41:56;;;;;;;;;;;;;;;;;;6293744;28;19927;-75
2022/07/24 08:44:58;;;;;;;;;;;;;;;;;;6295188;28;19935;-75
2022/07/24 08:47:59;;;;;;;;;;;;;;;;;;6292929;28;19944;-75
2022/07/24 08:51:01;;;;;;;;;;;;;;;;;;6287455;28;19916;-75
2022/07/24 08:54:02;;;;;;;;;;;;;;;;;;6287133;28;19940;-76
2022/07/24 08:57:05;;;;;;;;;;;;;;;;;;6290740;28;19916;-76
2022/07/24 09:00:07;;;;;;;;;;;;;;;;;;6289458;28;20012;-73
2022/07/24 09:03:08;;;;;;;;;;;;;;;;;;6288553;28;19916;-73
2022/07/24 09:06:10;;;;;;;;;;;;;;;;;;6291303;28;19924;-74
2022/07/24 09:09:12;;;;;;;;;;;;;;;;;;6290318;28;19916;-74
2022/07/24 09:12:15;;;;;;;;;;;;;;;;;;6290732;28;19925;-74
2022/07/24 09:15:17;;;;;;;;;;;;;;;;;;6291359;28;19916;-74
2022/07/24 09:18:28;;;;;;;;;;;;;;;;;;6287715;28;19962;-74
2022/07/24 09:21:31;;;;;;;;;;;;;;;;;;6292384;28;19924;-74
2022/07/24 09:24:33;;;;;;;;;;;;;;;;;;6290604;28;19946;-74
2022/07/24 09:27:36;;;;;;;;;;;;;;;;;;6292058;28;19916;-75
2022/07/24 09:30:38;;;;;;;;;;;;;;;;;;6296543;28;19916;-74
2022/07/24 09:33:40;;;;;;;;;;;;;;;;;;6294834;28;20009;-74
2022/07/24 09:36:42;;;;;;;;;;;;;;;;;;6290029;28;19928;-76
2022/07/24 09:39:43;;;;;;;;;;;;;;;;;;6289819;28;19925;-75
2022/07/24 09:42:46;;;;;;;;;;;;;;;;;;6286993;28;19925;-75
2022/07/24 09:45:56;;;;;;;;;;;;;;;;;;6291522;28;19917;-75
2022/07/24 09:48:58;;;;;;;;;;;;;;;;;;6292241;28;20211;-75
2022/07/24 09:52:10;;;;;;;;;;;;;;;;;;6293222;28;19916;-74
2022/07/24 09:55:21;;;;;;;;;;;;;;;;;;6292771;28;19978;-74
2022/07/24 09:58:24;;;;;;;;;;;;;;;;;;6321578;28;19916;-72
2022/07/24 10:01:26;;;;;;;;;;;;;;;;;;6316643;28;20204;-74
2022/07/24 10:04:27;;;;;;;;;;;;;;;;;;6318552;28;19920;-75
2022/07/24 10:07:29;;;;;;;;;;;;;;;;;;6321472;28;20162;-75
2022/07/24 10:10:30;;;;;;;;;;;;;;;;;;6318680;28;19931;-75
2022/07/24 10:13:34;;;;;;;;;;;;;;;;;;6318617;28;19931;-73
2022/07/24 10:16:36;;;;;;;;;;;;;;;;;;6308248;28;19934;-75
2022/07/24 10:19:42;;;;;;;;;;;;;;;;;;6293226;28;19974;-74
2022/07/24 10:22:45;;;;;;;;;;;;;;;;;;6294152;28;19924;-74
2022/07/24 10:25:52;;;;;;;;;;;;;;;;;;6290822;28;20222;-75
2022/07/24 10:28:55;;;;;;;;;;;;;;;;;;6296053;28;19916;-75
2022/07/24 10:31:58;;;;;;;;;;;;;;;;;;6293931;28;19924;-75
2022/07/24 10:35:04;;;;;;;;;;;;;;;;;;6295418;28;19928;-75
2022/07/24 10:38:06;;;;;;;;;;;;;;;;;;6293289;28;19931;-73
2022/07/24 10:41:10;;;;;;;;;;;;;;;;;;6293525;28;19929;-74
2022/07/24 10:44:14;;;;;;;;;;;;;;;;;;6292049;28;20255;-74
2022/07/24 10:47:16;;;;;;;;;;;;;;;;;;6294593;28;19959;-73
2022/07/24 10:50:22;;;;;;;;;;;;;;;;;;6291853;28;20223;-73
2022/07/24 10:53:23;;;;;;;;;;;;;;;;;;6291136;28;19980;-74
2022/07/24 10:56:26;;;;;;;;;;;;;;;;;;6293841;28;19917;-74
2022/07/24 10:59:35;;;;;;;;;;;;;;;;;;6288662;28;19932;-74
2022/07/24 11:02:39;;;;;;;;;;;;;;;;;;6292912;28;20143;-74
2022/07/24 11:05:41;;;;;;;;;;;;;;;;;;6294778;28;19929;-72
2022/07/24 11:08:43;;;;;;;;;;;;;;;;;;6297130;28;20099;-74
2022/07/24 11:11:59;;;;;;;;;;;;;;;;;;6291502;28;19932;-75
2022/07/24 11:18:17;;;;;;;;;;;;;;;;;;6291569;28;20108;-76
2022/07/24 11:21:27;;;;;;;;;;;;;;;;;;6292626;28;19940;-74
2022/07/24 11:24:30;;;;;;;;;;;;;;;;;;6292742;28;19946;-75
2022/07/24 11:27:39;;;;;;;;;;;;;;;;;;6294911;28;19979;-74
2022/07/24 11:30:43;;;;;;;;;;;;;;;;;;6296674;28;19965;-74
2022/07/24 11:33:44;;;;;;;;;;;;;;;;;;6290687;28;20034;-75
2022/07/24 11:36:47;;;;;;;;;;;;;;;;;;6293859;28;19916;-75
2022/07/24 11:39:49;;;;;;;;;;;;;;;;;;6290563;28;19923;-74
2022/07/24 11:42:55;;;;;;;;;;;;;;;;;;6290226;28;20032;-75
2022/07/24 11:45:57;;;;;;;;;;;;;;;;;;6293304;28;19958;-74
2022/07/24 11:49:02;;;;;;;;;;;;;;;;;;6290407;28;19948;-74
2022/07/24 11:52:04;;;;;;;;;;;;;;;;;;6291568;28;19916;-72
2022/07/24 11:55:06;;;;;;;;;;;;;;;;;;6291854;28;19916;-74
2022/07/24 11:58:08;;;;;;;;;;;;;;;;;;6294354;28;19929;-72
2022/07/24 12:01:20;;;;;;;;;;;;;;;;;;6291110;28;19916;-73
2022/07/24 12:04:22;;;;;;;;;;;;;;;;;;6315784;28;19922;-74
2022/07/24 12:07:24;;;;;;;;;;;;;;;;;;6315924;28;20107;-74
2022/07/24 12:10:26;;;;;;;;;;;;;;;;;;6316131;28;20211;-75
2022/07/24 12:13:29;;;;;;;;;;;;;;;;;;6315466;28;19939;-74
2022/07/24 12:16:32;;;;;;;;;;;;;;;;;;6316709;28;19931;-74
2022/07/24 12:19:34;;;;;;;;;;;;;;;;;;6315913;28;19916;-74
2022/07/24 12:22:35;;;;;;;;;;;;;;;;;;6317812;28;19923;-74
2022/07/24 12:25:37;;;;;;;;;;;;;;;;;;6300333;28;20026;-74
2022/07/24 12:28:38;;;;;;;;;;;;;;;;;;6306513;28;19921;-74
2022/07/24 12:31:41;;;;;;;;;;;;;;;;;;6294617;28;19931;-74
2022/07/24 12:34:42;;;;;;;;;;;;;;;;;;6293457;28;19931;-75
2022/07/24 12:37:44;;;;;;;;;;;;;;;;;;6292089;28;20100;-74
2022/07/24 12:40:45;;;;;;;;;;;;;;;;;;6297476;28;19931;-74
2022/07/24 12:43:48;;;;;;;;;;;;;;;;;;6290104;28;19916;-74
2022/07/24 12:46:51;;;;;;;;;;;;;;;;;;6292817;28;19917;-74
2022/07/24 12:49:52;;;;;;;;;;;;;;;;;;6293541;28;20200;-74
2022/07/24 12:53:03;;;;;;;;;;;;;;;;;;6295329;28;19917;-74
2022/07/24 12:56:05;;;;;;;;;;;;;;;;;;6294524;28;19925;-74
2022/07/24 12:59:07;;;;;;;;;;;;;;;;;;6297800;28;20081;-75
2022/07/24 13:02:10;;;;;;;;;;;;;;;;;;6290311;28;19924;-74
2022/07/24 13:05:12;;;;;;;;;;;;;;;;;;6297919;28;19925;-73
2022/07/24 13:08:13;;;;;;;;;;;;;;;;;;6295109;28;19924;-74
2022/07/24 13:11:15;;;;;;;;;;;;;;;;;;6291078;28;20200;-74
2022/07/24 13:14:17;;;;;;;;;;;;;;;;;;6293109;28;20265;-74
2022/07/24 13:17:20;;;;;;;;;;;;;;;;;;6292599;28;20226;-75
2022/07/24 13:20:21;;;;;;;;;;;;;;;;;;6294728;28;20088;-74
2022/07/24 13:23:23;;;;;;;;;;;;;;;;;;6295098;28;19917;-74
2022/07/24 13:26:24;;;;;;;;;;;;;;;;;;6305635;28;19924;-74
2022/07/24 13:29:26;;;;;;;;;;;;;;;;;;6295052;28;19960;-75
2022/07/24 13:32:29;;;;;;;;;;;;;;;;;;6294135;28;19925;-74
2022/07/24 13:35:30;;;;;;;;;;;;;;;;;;6298340;28;19924;-74
2022/07/24 13:38:32;;;;;;;;;;;;;;;;;;6290425;28;20162;-74
2022/07/24 13:41:33;;;;;;;;;;;;;;;;;;6292849;28;20202;-74
2022/07/24 13:44:34;;;;;;;;;;;;;;;;;;6297290;28;20014;-77
2022/07/24 13:47:37;;;;;;;;;;;;;;;;;;6300496;28;19924;-76
2022/07/24 13:50:39;;;;;;;;;;;;;;;;;;6298409;28;19952;-77
2022/07/24 13:53:40;;;;;;;;;;;;;;;;;;6296838;28;20403;-74
2022/07/24 13:56:42;;;;;;;;;;;;;;;;;;6299896;28;19916;-79
2022/07/24 13:59:43;;;;;;;;;;;;;;;;;;6298099;28;19979;-77
2022/07/24 14:02:46;;;;;;;;;;;;;;;;;;6297408;28;19932;-78
2022/07/24 14:05:48;;;;;;;;;;;;;;;;;;6294212;28;20104;-77
2022/07/24 14:08:49;;;;;;;;;;;;;;;;;;6300856;28;19920;-77
2022/07/24 14:11:51;;;;;;;;;;;;;;;;;;6300470;28;19967;-74
2022/07/24 14:14:52;;;;;;;;;;;;;;;;;;6299917;28;19923;-77
2022/07/24 14:17:55;;;;;;;;;;;;;;;;;;6291234;28;20069;-76
2022/07/24 14:20:56;;;;;;;;;;;;;;;;;;6296163;28;19947;-76
2022/07/24 14:23:58;;;;;;;;;;;;;;;;;;6297045;28;19935;-76
2022/07/24 14:26:59;;;;;;;;;;;;;;;;;;6301496;28;19920;-77
2022/07/24 14:30:01;;;;;;;;;;;;;;;;;;6295297;28;19935;-77
2022/07/24 14:33:04;;;;;;;;;;;;;;;;;;6291839;28;19920;-75
2022/07/24 14:36:06;;;;;;;;;;;;;;;;;;6280518;28;19925;-72
2022/07/24 14:39:07;;;;;;;;;;;;;;;;;;6293557;28;19917;-78
2022/07/24 14:42:09;;;;;;;;;;;;;;;;;;6296091;28;20107;-77
2022/07/24 14:45:11;;;;;;;;;;;;;;;;;;6297296;28;19928;-76
2022/07/24 14:48:14;;;;;;;;;;;;;;;;;;6291562;28;19923;-76
2022/07/24 14:51:15;;;;;;;;;;;;;;;;;;6295246;28;20143;-77
2022/07/24 14:54:16;;;;;;;;;;;;;;;;;;6299714;28;19916;-76
2022/07/24 14:57:18;;;;;;;;;;;;;;;;;;6299674;28;19916;-76
2022/07/24 15:00:19;;;;;;;;;;;;;;;;;;6294866;28;19931;-76
2022/07/24 15:03:22;;;;;;;;;;;;;;;;;;6299756;28;19924;-76
2022/07/24 15:06:24;;;;;;;;;;;;;;;;;;6296484;28;19938;-76
2022/07/24 15:09:25;;;;;;;;;;;;;;;;;;6293751;28;19990;-76
2022/07/24 15:12:26;;;;;;;;;;;;;;;;;;6295669;28;20196;-76
2022/07/24 15:15:28;;;;;;;;;;;;;;;;;;6291170;28;20210;-77
2022/07/24 15:18:31;;;;;;;;;;;;;;;;;;6293769;28;19920;-76
2022/07/24 15:21:32;;;;;;;;;;;;;;;;;;6292621;28;19917;-76
2022/07/24 15:24:33;;;;;;;;;;;;;;;;;;6294062;28;19917;-76
2022/07/24 15:27:35;;;;;;;;;;;;;;;;;;6291165;28;20258;-76
2022/07/24 15:30:36;;;;;;;;;;;;;;;;;;6291252;28;19925;-76
2022/07/24 15:33:39;;;;;;;;;;;;;;;;;;6291003;28;19940;-76
2022/07/24 15:36:41;;;;;;;;;;;;;;;;;;6293407;28;20112;-75
2022/07/24 15:39:42;;;;;;;;;;;;;;;;;;6292745;28;20842;-76
2022/07/24 15:42:44;;;;;;;;;;;;;;;;;;6294170;28;19917;-77
2022/07/24 15:45:45;;;;;;;;;;;;;;;;;;6292116;28;20127;-76
2022/07/24 15:48:48;;;;;;;;;;;;;;;;;;6294078;28;20212;-77
2022/07/24 15:51:50;;;;;;;;;;;;;;;;;;6289542;28;19939;-76
2022/07/24 15:54:51;;;;;;;;;;;;;;;;;;6293059;28;19970;-76
2022/07/24 15:57:53;;;;;;;;;;;;;;;;;;6293459;28;19955;-74
2022/07/24 16:00:54;;;;;;;;;;;;;;;;;;6294170;28;20018;-76
2022/07/24 16:03:57;;;;;;;;;;;;;;;;;;6288422;28;20006;-76
2022/07/24 16:06:58;;;;;;;;;;;;;;;;;;6291837;28;20235;-75
2022/07/24 16:10:00;;;;;;;;;;;;;;;;;;6291579;28;19916;-76
2022/07/24 16:13:01;;;;;;;;;;;;;;;;;;6294242;28;19922;-76
2022/07/24 16:16:03;;;;;;;;;;;;;;;;;;6290205;28;19916;-75
2022/07/24 16:19:06;;;;;;;;;;;;;;;;;;6291611;28;19924;-73
2022/07/24 16:22:07;;;;;;;;;;;;;;;;;;6291693;28;19952;-77
2022/07/24 16:25:09;;;;;;;;;;;;;;;;;;6289042;28;19922;-77
2022/07/24 16:28:11;;;;;;;;;;;;;;;;;;6289184;28;19936;-77
2022/07/24 16:31:13;;;;;;;;;;;;;;;;;;6295004;28;19920;-76
2022/07/24 16:34:16;;;;;;;;;;;;;;;;;;6292724;28;20215;-77
2022/07/24 16:37:17;;;;;;;;;;;;;;;;;;6294322;28;20154;-76
2022/07/24 16:40:19;;;;;;;;;;;;;;;;;;6289687;28;19923;-75
2022/07/24 16:43:20;;;;;;;;;;;;;;;;;;6289254;28;19924;-76
2022/07/24 16:46:22;;;;;;;;;;;;;;;;;;6290681;28;19925;-75
2022/07/24 16:49:25;;;;;;;;;;;;;;;;;;6292723;28;19916;-74
2022/07/24 16:52:26;;;;;;;;;;;;;;;;;;6293359;28;19916;-75
2022/07/24 16:55:28;;;;;;;;;;;;;;;;;;6286502;28;19928;-75
2022/07/24 16:58:29;;;;;;;;;;;;;;;;;;6289129;28;20112;-75
2022/07/24 17:01:30;;;;;;;;;;;;;;;;;;6287754;28;19931;-76
2022/07/24 17:04:33;;;;;;;;;;;;;;;;;;6296225;28;19916;-77
2022/07/24 17:07:35;;;;;;;;;;;;;;;;;;6295184;28;20401;-76
2022/07/24 17:10:36;;;;;;;;;;;;;;;;;;6297321;28;19916;-76
2022/07/24 17:13:38;;;;;;;;;;;;;;;;;;6298083;28;20200;-76
2022/07/24 17:16:39;;;;;;;;;;;;;;;;;;6291968;28;20226;-76
2022/07/24 17:19:42;;;;;;;;;;;;;;;;;;6292081;28;19978;-76
2022/07/24 17:22:44;;;;;;;;;;;;;;;;;;6295752;28;19916;-76
2022/07/24 17:25:45;;;;;;;;;;;;;;;;;;6291682;28;20911;-76
2022/07/24 17:28:46;;;;;;;;;;;;;;;;;;6294229;28;19957;-75
2022/07/24 17:31:48;;;;;;;;;;;;;;;;;;6288400;28;20208;-73
2022/07/24 17:34:51;;;;;;;;;;;;;;;;;;6290741;28;19931;-74
2022/07/24 17:37:52;;;;;;;;;;;;;;;;;;6295594;28;19916;-74
2022/07/24 17:40:54;;;;;;;;;;;;;;;;;;6294644;28;20112;-73
2022/07/24 17:43:55;;;;;;;;;;;;;;;;;;6302596;28;19916;-74
2022/07/24 17:46:56;;;;;;;;;;;;;;;;;;6291508;28;19924;-73
2022/07/24 17:49:59;;;;;;;;;;;;;;;;;;6294712;28;19920;-73
2022/07/24 17:53:01;;;;;;;;;;;;;;;;;;6294170;28;19951;-73
2022/07/24 17:56:02;;;;;;;;;;;;;;;;;;6290153;28;20127;-73
2022/07/24 17:59:04;;;;;;;;;;;;;;;;;;6275106;28;19967;-72
2022/07/24 18:02:05;;;;;;;;;;;;;;;;;;6288087;28;20219;-75
2022/07/24 18:05:08;;;;;;;;;;;;;;;;;;6294587;28;19924;-74
2022/07/24 18:08:10;;;;;;;;;;;;;;;;;;6292030;28;19916;-74
2022/07/24 18:11:11;;;;;;;;;;;;;;;;;;6295010;28;19982;-74
2022/07/24 18:14:13;;;;;;;;;;;;;;;;;;6295343;28;20150;-74
2022/07/24 18:17:14;;;;;;;;;;;;;;;;;;6296389;28;19916;-75
2022/07/24 18:20:17;;;;;;;;;;;;;;;;;;6292793;28;19936;-72
2022/07/24 18:23:18;;;;;;;;;;;;;;;;;;6293295;28;19924;-73
2022/07/24 18:26:20;;;;;;;;;;;;;;;;;;6297270;28;20093;-74
2022/07/24 18:29:21;;;;;;;;;;;;;;;;;;6295635;28;19916;-73
2022/07/24 18:32:23;;;;;;;;;;;;;;;;;;6299323;28;19916;-72
2022/07/24 18:35:25;;;;;;;;;;;;;;;;;;6296725;28;19917;-73
2022/07/24 18:38:27;;;;;;;;;;;;;;;;;;6298461;28;20228;-74
2022/07/24 18:41:29;;;;;;;;;;;;;;;;;;6299237;28;19924;-74
2022/07/24 18:44:30;;;;;;;;;;;;;;;;;;6302974;28;19924;-74
2022/07/24 18:47:32;;;;;;;;;;;;;;;;;;6299371;28;19928;-74
2022/07/24 18:50:34;;;;;;;;;;;;;;;;;;6295940;28;19924;-73
2022/07/24 18:53:36;;;;;;;;;;;;;;;;;;6297522;28;19967;-73
2022/07/24 18:56:37;;;;;;;;;;;;;;;;;;6297869;28;19928;-74
2022/07/24 18:59:39;;;;;;;;;;;;;;;;;;6297849;28;20084;-74
2022/07/24 19:02:40;;;;;;;;;;;;;;;;;;6299043;28;19958;-73
2022/07/24 19:05:43;;;;;;;;;;;;;;;;;;6293577;28;19978;-73
2022/07/24 19:08:44;;;;;;;;;;;;;;;;;;6297206;28;19962;-74
2022/07/24 19:11:46;;;;;;;;;;;;;;;;;;6297503;28;19920;-73
2022/07/24 19:14:48;;;;;;;;;;;;;;;;;;6295617;28;19916;-73
2022/07/24 19:17:49;;;;;;;;;;;;;;;;;;6300128;28;20151;-77
2022/07/24 19:20:52;;;;;;;;;;;;;;;;;;6298764;28;19924;-76
2022/07/24 19:23:54;;;;;;;;;;;;;;;;;;6297603;28;20122;-76
2022/07/24 19:26:55;;;;;;;;;;;;;;;;;;6296849;28;19916;-76
2022/07/24 19:29:57;;;;;;;;;;;;;;;;;;6294238;28;19916;-76
2022/07/24 19:32:58;;;;;;;;;;;;;;;;;;6299067;28;19921;-76
2022/07/24 19:36:01;;;;;;;;;;;;;;;;;;6296115;28;20223;-75
2022/07/24 19:39:03;;;;;;;;;;;;;;;;;;6297921;28;19917;-74
2022/07/24 19:42:05;;;;;;;;;;;;;;;;;;6295597;28;19924;-75
2022/07/24 19:45:07;;;;;;;;;;;;;;;;;;6296147;28;19916;-77
2022/07/24 19:48:09;;;;;;;;;;;;;;;;;;6296998;28;19923;-76
2022/07/24 19:51:12;;;;;;;;;;;;;;;;;;6294415;28;19943;-75
2022/07/24 19:54:13;;;;;;;;;;;;;;;;;;6295885;28;20195;-76
2022/07/24 19:57:15;;;;;;;;;;;;;;;;;;6297043;28;19916;-76
2022/07/24 20:00:16;;;;;;;;;;;;;;;;;;6300421;28;19948;-77
2022/07/24 20:03:18;;;;;;;;;;;;;;;;;;6291614;28;19954;-76
2022/07/24 20:06:21;;;;;;;;;;;;;;;;;;6295996;28;20263;-76
2022/07/24 20:09:22;;;;;;;;;;;;;;;;;;6299315;28;20116;-76
2022/07/24 20:12:25;;;;;;;;;;;;;;;;;;6298679;28;19932;-75
2022/07/24 20:15:27;;;;;;;;;;;;;;;;;;6294749;28;19922;-76
2022/07/24 20:18:28;;;;;;;;;;;;;;;;;;6296664;28;19924;-75
2022/07/24 20:21:31;;;;;;;;;;;;;;;;;;6300116;28;19916;-75
2022/07/24 20:24:32;;;;;;;;;;;;;;;;;;6295633;28;19924;-76
2022/07/24 20:27:34;;;;;;;;;;;;;;;;;;6293515;28;19916;-76
2022/07/24 20:30:36;;;;;;;;;;;;;;;;;;6299648;28;19935;-76
2022/07/24 20:33:37;;;;;;;;;;;;;;;;;;6299045;28;19939;-76
2022/07/24 20:36:40;;;;;;;;;;;;;;;;;;6296021;28;19931;-76
2022/07/24 20:39:42;;;;;;;;;;;;;;;;;;6294814;28;21287;-76
2022/07/24 20:42:43;;;;;;;;;;;;;;;;;;6290929;28;19947;-75